Terminal Aerodrome Forecast
Issued by NWS

Home | Current Version | Previous Version | Text Only | Print | Product List | Glossary Off
Versions: 1 2 3 4 5 6 7 8 9 10 11 12

613
FTUS43 KOAX 212320
TAFCDR
TAF
KCDR 212320Z 2200/2224 17009KT P6SM SKC
     FM221500 23013G24KT P6SM SCT100=

USA.gov is the U.S. government's official web portal to all federal, state and local government web resources and services.